createdAt,value
2019-05-03T00:02:22.048Z,12.84
2019-05-03T00:07:25.545Z,12.81
2019-05-03T00:12:29.031Z,12.75
2019-05-03T00:17:32.743Z,12.69
2019-05-03T00:22:36.384Z,12.62
2019-05-03T00:27:39.781Z,12.70
2019-05-03T00:32:43.177Z,12.71
2019-05-03T00:37:48.219Z,12.72
2019-05-03T00:42:51.787Z,12.71
2019-05-03T00:47:55.255Z,12.66
2019-05-03T00:52:58.651Z,12.70
2019-05-03T00:58:02.483Z,12.56
2019-05-03T01:03:05.933Z,12.48
2019-05-03T01:08:09.332Z,12.41
2019-05-03T01:13:12.966Z,12.25
2019-05-03T01:18:18.024Z,12.17
2019-05-03T01:23:21.905Z,12.11
2019-05-03T01:28:25.422Z,12.18
2019-05-03T01:33:29.058Z,12.25
2019-05-03T01:38:32.469Z,12.28
2019-05-03T01:43:35.861Z,12.28
2019-05-03T01:48:46.298Z,12.34
2019-05-03T01:53:52.220Z,12.32
2019-05-03T01:58:55.743Z,12.32
2019-05-03T02:04:16.711Z,12.35
2019-05-03T02:09:21.668Z,12.30
2019-05-03T02:14:25.096Z,12.28
2019-05-03T02:19:28.492Z,12.19
2019-05-03T02:24:32.753Z,12.15
2019-05-03T02:29:36.266Z,12.03
2019-05-03T02:34:39.669Z,11.90
2019-05-03T02:39:43.072Z,11.83
2019-05-03T02:44:46.499Z,11.83
2019-05-03T02:49:56.220Z,11.80
2019-05-03T02:54:59.668Z,11.76
2019-05-03T03:00:05.204Z,11.73
2019-05-03T03:05:09.332Z,11.69
2019-05-03T03:10:16.010Z,11.68
2019-05-03T03:15:18.390Z,11.68
2019-05-03T03:20:25.252Z,11.56
2019-05-03T03:25:32.209Z,11.55
2019-05-03T03:30:57.150Z,11.49
2019-05-03T03:36:29.472Z,11.53
2019-05-03T03:41:05.830Z,11.47
2019-05-03T03:46:10.189Z,11.47
2019-05-03T03:51:15.612Z,11.43
2019-05-03T03:56:21.337Z,11.40
2019-05-03T04:01:26.722Z,11.42
2019-05-03T04:06:41.843Z,11.30
2019-05-03T04:11:46.387Z,11.26
2019-05-03T04:17:07.677Z,11.23
2019-05-03T04:22:11.391Z,11.24
2019-05-03T04:27:22.879Z,11.20
2019-05-03T04:32:24.642Z,11.23
2019-05-03T04:37:26.586Z,11.24
2019-05-03T04:42:30.176Z,11.20
2019-05-03T04:47:35.772Z,11.20
2019-05-03T04:52:38.696Z,11.21
2019-05-03T04:57:49.015Z,11.25
2019-05-03T05:02:47.445Z,11.35
2019-05-03T05:07:50.852Z,11.40
2019-05-03T05:12:55.194Z,11.48
2019-05-03T05:18:00.539Z,11.58
2019-05-03T05:23:04.635Z,11.70
2019-05-03T05:28:24.998Z,11.83
2019-05-03T05:33:28.465Z,11.77
2019-05-03T05:38:31.853Z,11.77
2019-05-03T05:43:35.781Z,11.86
2019-05-03T05:48:40.775Z,11.88
2019-05-03T05:53:44.814Z,11.98
2019-05-03T05:58:49.912Z,11.95
2019-05-03T06:03:55.030Z,12.00
2019-05-03T06:09:00.335Z,12.04
2019-05-03T06:14:20.253Z,12.10
2019-05-03T06:19:25.387Z,12.23
2019-05-03T06:24:45.290Z,12.36
2019-05-03T06:29:50.124Z,12.35
2019-05-03T06:34:54.601Z,12.22
2019-05-03T06:39:58.003Z,12.11
2019-05-03T06:45:09.639Z,12.02
2019-05-03T06:50:07.266Z,11.99
2019-05-03T06:55:10.959Z,12.04
2019-05-03T07:00:16.367Z,12.06
2019-05-03T07:05:21.639Z,12.06
2019-05-03T07:10:29.670Z,12.06
2019-05-03T07:15:34.988Z,12.03
2019-05-03T07:20:45.472Z,11.94
2019-05-03T07:25:49.111Z,11.84
2019-05-03T07:30:54.422Z,11.77
2019-05-03T07:35:57.822Z,11.80
2019-05-03T07:41:01.529Z,11.65
2019-05-03T07:46:05.672Z,11.65
2019-05-03T07:51:09.311Z,11.61
2019-05-03T07:56:16.303Z,11.75
2019-05-03T08:01:21.340Z,11.91
2019-05-03T08:06:24.868Z,12.03
2019-05-03T08:11:28.446Z,12.21
2019-05-03T08:16:31.848Z,12.45
2019-05-03T08:21:37.794Z,12.68
2019-05-03T08:26:40.398Z,12.90
2019-05-03T08:31:45.665Z,13.10
2019-05-03T08:36:56.514Z,13.23
2019-05-03T08:42:01.614Z,13.28
2019-05-03T08:47:05.618Z,13.31
2019-05-03T08:52:09.260Z,13.39
2019-05-03T08:57:14.803Z,13.48
2019-05-03T09:02:18.394Z,13.54
2019-05-03T09:07:22.063Z,13.53
2019-05-03T09:12:25.458Z,13.38
2019-05-03T09:17:28.861Z,13.64
2019-05-03T09:22:32.270Z,13.72
2019-05-03T09:27:35.660Z,13.94
2019-05-03T09:32:39.058Z,14.05
2019-05-03T09:37:42.698Z,14.12
2019-05-03T09:42:46.102Z,13.98
2019-05-03T09:47:49.502Z,13.87
2019-05-03T09:52:55.263Z,14.10
2019-05-03T09:57:58.024Z,14.09
2019-05-03T10:03:01.428Z,14.15
2019-05-03T10:08:05.339Z,13.85
2019-05-03T10:13:14.242Z,14.02
2019-05-03T10:18:15.479Z,13.85
2019-05-03T10:23:35.859Z,13.31
2019-05-03T10:28:39.471Z,12.78
2019-05-03T10:33:47.465Z,12.16
2019-05-03T10:38:50.871Z,11.95
2019-05-03T10:43:55.702Z,12.10
2019-05-03T10:48:59.189Z,12.39
2019-05-03T10:54:02.660Z,12.69
2019-05-03T10:59:10.344Z,13.12
2019-05-03T11:04:14.750Z,13.54
2019-05-03T11:09:18.214Z,13.85
2019-05-03T11:14:21.612Z,14.11
2019-05-03T11:19:25.486Z,14.24
2019-05-03T11:24:29.016Z,14.32
2019-05-03T11:29:32.441Z,14.70
2019-05-03T11:34:49.321Z,14.53
2019-05-03T11:39:52.971Z,14.45
2019-05-03T11:44:56.370Z,14.40
2019-05-03T11:49:59.766Z,14.63
2019-05-03T11:55:10.388Z,14.70
2019-05-03T12:00:10.311Z,14.80
2019-05-03T12:05:18.520Z,15.04
2019-05-03T12:10:37.286Z,15.08
2019-05-03T12:15:27.441Z,15.41
2019-05-03T12:20:32.159Z,15.68
2019-05-03T12:25:36.778Z,15.68
2019-05-03T12:30:40.953Z,15.86
2019-05-03T12:35:46.268Z,15.99
2019-05-03T12:40:49.744Z,16.19
2019-05-03T12:45:53.378Z,16.49
2019-05-03T12:50:57.207Z,16.55
2019-05-03T12:56:00.982Z,16.36
2019-05-03T13:01:09.214Z,16.11
2019-05-03T13:06:14.827Z,15.85
2019-05-03T13:11:17.730Z,15.85
2019-05-03T13:16:21.218Z,15.54
2019-05-03T13:21:25.258Z,15.16
2019-05-03T13:26:28.688Z,15.16
2019-05-03T13:31:34.539Z,15.13
2019-05-03T13:36:37.435Z,15.41
2019-05-03T13:41:40.830Z,15.51
2019-05-03T13:46:44.798Z,15.56
2019-05-03T13:51:48.161Z,15.67
2019-05-03T13:56:51.556Z,16.22
2019-05-03T14:01:54.957Z,16.06
2019-05-03T14:06:58.344Z,15.93
2019-05-03T14:12:01.738Z,15.93
2019-05-03T14:17:05.342Z,15.81
2019-05-03T14:22:10.582Z,15.97
2019-05-03T14:27:15.651Z,15.62
2019-05-03T14:32:25.929Z,15.37
2019-05-03T14:37:24.267Z,15.25
2019-05-03T14:42:27.658Z,15.18
2019-05-03T14:47:31.045Z,15.06
2019-05-03T14:52:34.914Z,15.05
2019-05-03T14:57:44.474Z,15.26
2019-05-03T15:03:01.528Z,15.20
2019-05-03T15:08:05.542Z,15.15
2019-05-03T15:13:09.059Z,14.90
2019-05-03T15:18:14.771Z,14.83
2019-05-03T15:23:17.804Z,14.64
2019-05-03T15:28:21.202Z,14.64
2019-05-03T15:33:24.607Z,14.72
2019-05-03T15:38:27.997Z,14.73
2019-05-03T15:43:51.497Z,14.68
2019-05-03T15:48:56.535Z,14.57
2019-05-03T15:54:00.347Z,14.25
2019-05-03T15:59:04.535Z,14.25
2019-05-03T16:04:08.386Z,14.26
2019-05-03T16:09:12.175Z,14.32
2019-05-03T16:14:15.582Z,14.32
2019-05-03T16:19:18.975Z,14.38
2019-05-03T16:24:22.387Z,14.26
2019-05-03T16:29:25.783Z,14.28
2019-05-03T16:34:29.449Z,14.30
2019-05-03T16:39:35.168Z,14.19
2019-05-03T16:44:37.959Z,14.16
2019-05-03T16:49:42.074Z,14.18
2019-05-03T16:54:45.716Z,14.12
2019-05-03T16:59:49.112Z,14.08
2019-05-03T17:05:05.159Z,14.05
2019-05-03T17:10:10.115Z,13.99
2019-05-03T17:15:14.507Z,13.98
2019-05-03T17:20:18.074Z,14.02
2019-05-03T17:25:21.782Z,14.00
2019-05-03T17:30:33.831Z,13.96
2019-05-03T17:35:30.339Z,13.90
2019-05-03T17:40:44.308Z,13.87
2019-05-03T17:45:52.115Z,13.77
2019-05-03T17:50:55.586Z,13.75
2019-05-03T17:56:04.682Z,13.72
2019-05-03T18:01:26.121Z,13.72
2019-05-03T18:06:31.163Z,13.73
2019-05-03T18:11:45.128Z,13.62
2019-05-03T18:16:48.578Z,13.59
2019-05-03T18:21:51.983Z,13.58
2019-05-03T18:26:55.706Z,13.58
2019-05-03T18:31:59.094Z,13.54
2019-05-03T18:37:04.631Z,13.58
2019-05-03T18:42:09.247Z,13.72
2019-05-03T18:47:14.743Z,13.83
2019-05-03T18:52:18.074Z,13.92
2019-05-03T18:57:21.472Z,13.92
2019-05-03T19:02:25.533Z,13.88
2019-05-03T19:07:39.733Z,13.48
2019-05-03T19:12:47.706Z,13.02
2019-05-03T19:18:01.766Z,12.75
2019-05-03T19:23:05.237Z,12.78
2019-05-03T19:28:08.860Z,12.82
2019-05-03T19:33:12.247Z,12.81
2019-05-03T19:38:15.645Z,12.79
2019-05-03T19:43:19.043Z,12.67
2019-05-03T19:48:22.430Z,12.49
2019-05-03T19:53:27.462Z,12.42
2019-05-03T19:58:30.853Z,12.28
2019-05-03T20:03:41.589Z,12.24
2019-05-03T20:08:46.621Z,12.16
2019-05-03T20:13:50.240Z,12.16
2019-05-03T20:18:55.383Z,12.14
2019-05-03T20:23:58.909Z,12.02
2019-05-03T20:29:02.296Z,12.02
2019-05-03T20:34:05.693Z,12.09
2019-05-03T20:39:09.151Z,12.18
2019-05-03T20:44:32.002Z,11.99
2019-05-03T20:49:35.661Z,11.94
2019-05-03T20:54:39.054Z,11.74
2019-05-03T20:59:47.001Z,11.70
2019-05-03T21:04:47.562Z,11.62
2019-05-03T21:09:51.184Z,11.36
2019-05-03T21:14:55.651Z,11.25
2019-05-03T21:20:03.378Z,11.16
2019-05-03T21:25:21.109Z,11.08
2019-05-03T21:30:24.728Z,11.10
2019-05-03T21:35:40.813Z,11.11
2019-05-03T21:40:34.842Z,10.85
2019-05-03T21:45:39.962Z,10.66
2019-05-03T21:50:44.641Z,10.49
2019-05-03T21:55:48.131Z,10.34
2019-05-03T22:00:54.646Z,10.15
2019-05-03T22:05:58.190Z,10.12
2019-05-03T22:11:01.554Z,10.07
2019-05-03T22:16:06.834Z,10.00
2019-05-03T22:21:17.247Z,9.82
2019-05-03T22:26:47.483Z,9.70
2019-05-03T22:31:51.113Z,9.52
2019-05-03T22:36:54.989Z,9.32
2019-05-03T22:41:58.651Z,9.25
2019-05-03T22:47:02.041Z,9.31
2019-05-03T22:52:05.434Z,9.18
2019-05-03T22:57:09.056Z,9.02
2019-05-03T23:02:12.451Z,8.95
2019-05-03T23:07:15.844Z,8.80
2019-05-03T23:12:19.237Z,8.76
2019-05-03T23:17:22.628Z,8.69
2019-05-03T23:22:27.724Z,8.55
2019-05-03T23:27:31.114Z,8.47
2019-05-03T23:32:35.078Z,8.49
2019-05-03T23:37:38.571Z,8.45
2019-05-03T23:42:41.962Z,8.34
2019-05-03T23:47:46.989Z,8.28
2019-05-03T23:52:50.375Z,8.29
2019-05-03T23:57:55.400Z,8.45
